Time;durP1;ratioP1;P1;durP2;ratioP2;P2;SDS_P1;SDS_P2;PMS_P1;PMS_P2;Temp;Humidity;BMP_temperature;BMP_pressure;BME280_temperature;BME280_humidity;BME280_pressure;Samples;Min_cycle;Max_cycle;Signal;HPM_P1;HPM_P2
2023/10/21 02:44:44;;;;;;;8.07;4.30;;;;;;;3.56;82.51;99496.31;6172486;23;20130;-91
2023/10/21 02:47:11;;;;;;;8.23;4.47;;;;;;;3.72;82.20;99516.97;6150461;23;20020;-92
2023/10/21 02:49:37;;;;;;;8.32;3.83;;;;;;;3.67;81.94;99512.31;6151520;23;20056;-93
2023/10/21 02:52:03;;;;;;;7.27;4.13;;;;;;;3.52;82.09;99494.16;6151355;23;20021;-92
2023/10/21 02:54:30;;;;;;;6.63;4.10;;;;;;;3.64;81.91;99517.44;6127941;23;20659;-93
2023/10/21 02:56:56;;;;;;;6.20;3.80;;;;;;;3.83;81.94;99534.03;6174983;23;20024;-92
2023/10/21 02:59:23;;;;;;;6.75;3.85;;;;;;;3.58;81.80;99495.00;6153562;23;20020;-94
2023/10/21 03:01:49;;;;;;;7.53;3.97;;;;;;;3.46;81.22;99473.56;6155740;23;20334;-93
2023/10/21 03:04:16;;;;;;;11.13;5.00;;;;;;;3.73;81.31;99532.91;6130951;23;20080;-94
2023/10/21 03:06:47;;;;;;;14.27;5.05;;;;;;;4.00;81.49;99570.63;6182566;23;20024;-95
2023/10/21 03:09:15;;;;;;;7.90;4.38;;;;;;;3.81;81.15;99545.13;6154736;23;20063;-94
2023/10/21 03:11:42;;;;;;;5.55;3.10;;;;;;;3.48;81.24;99495.75;6175527;23;20042;-93
2023/10/21 03:14:09;;;;;;;7.40;4.10;;;;;;;3.43;80.74;99490.31;6153966;23;20015;-92
2023/10/21 03:16:36;;;;;;;5.18;3.58;;;;;;;3.71;80.91;99539.66;6181828;23;20072;-94
2023/10/21 03:19:04;;;;;;;10.00;3.80;;;;;;;3.09;80.58;99457.41;6156763;23;20484;-94
2023/10/21 03:21:30;;;;;;;14.63;4.20;;;;;;;3.64;81.17;99553.44;6162869;23;20027;-92
2023/10/21 03:23:57;;;;;;;15.97;4.40;;;;;;;3.44;81.11;99510.03;6169250;23;20064;-91
2023/10/21 03:26:24;;;;;;;8.23;4.13;;;;;;;3.23;81.03;99473.97;6169570;23;20244;-94
2023/10/21 03:28:50;;;;;;;;;;;;;;;4.02;80.75;99589.31;6161189;23;20024;-91
2023/10/21 03:31:17;;;;;;;7.13;4.10;;;;;;;3.99;80.56;99593.34;6152418;23;19916;-90
2023/10/21 03:33:44;;;;;;;9.82;4.30;;;;;;;3.99;80.81;99589.84;6109513;23;20001;-93
2023/10/21 03:36:10;;;;;;;7.85;4.32;;;;;;;3.52;80.58;99526.56;6159789;23;20062;-92
2023/10/21 03:38:38;;;;;;;10.10;4.38;;;;;;;3.68;80.12;99551.00;6158776;23;20014;-95
2023/10/21 03:41:09;;;;;;;7.28;4.10;;;;;;;3.59;79.80;99534.47;6147772;23;20113;-93
2023/10/21 03:43:39;;;;;;;9.45;4.07;;;;;;;3.35;79.49;99487.31;6097982;23;20020;-94
2023/10/21 03:46:10;;;;;;;10.40;3.97;;;;;;;3.27;79.48;99486.69;6098708;23;20021;-93
2023/10/21 03:48:36;;;;;;;3.88;2.83;;;;;;;3.63;78.67;99557.19;6146244;23;20065;-92
2023/10/21 03:51:06;;;;;;;4.30;2.67;;;;;;;3.42;78.71;99545.44;6146544;23;20025;-92
2023/10/21 03:53:33;;;;;;;7.40;3.65;;;;;;;3.82;79.05;99621.66;6123870;23;20018;-93
2023/10/21 03:56:03;;;;;;;5.68;3.45;;;;;;;3.17;78.90;99519.03;6126551;23;20025;-94
2023/10/21 03:58:30;;;;;;;5.57;3.30;;;;;;;3.35;79.00;99538.63;6133782;23;20040;-94
2023/10/21 04:03:52;;;;;;;3.97;2.90;;;;;;;3.45;78.77;99569.25;6208571;23;20020;-93
2023/10/21 04:06:21;;;;;;;6.40;3.30;;;;;;;3.58;78.74;99569.88;6164043;23;20048;-93
2023/10/21 04:08:48;;;;;;;4.95;3.20;;;;;;;3.86;79.09;99620.88;6141739;23;20032;-95
2023/10/21 04:11:14;;;;;;;4.55;3.30;;;;;;;4.06;78.29;99641.00;6184873;23;20016;-91
2023/10/21 04:14:23;;;;;;;5.22;2.85;;;;;;;3.91;77.69;99644.44;6138404;23;20028;-94
2023/10/21 04:16:57;;;;;;;9.05;3.17;;;;;;;3.83;77.57;99643.00;6239940;23;20021;-94
2023/10/21 04:23:01;;;;;;;4.43;2.63;;;;;;;3.75;77.31;99649.72;6239323;23;20071;-95
2023/10/21 04:25:52;;;;;;;8.32;2.90;;;;;;;2.94;76.83;99524.81;6241142;23;20028;-95
2023/10/21 04:31:14;;;;;;;4.50;2.85;;;;;;;3.30;77.04;99569.13;6179464;23;20030;-94
2023/10/21 04:33:50;;;;;;;4.78;2.97;;;;;;;3.13;77.08;99547.66;6127673;23;20039;-93
2023/10/21 04:36:37;;;;;;;6.65;3.67;;;;;;;3.43;77.39;99584.88;6146894;23;20025;-95
2023/10/21 04:39:29;;;;;;;7.10;3.40;;;;;;;3.16;77.15;99559.84;6096017;23;20003;-93
2023/10/21 04:42:01;;;;;;;6.45;3.40;;;;;;;3.97;77.08;99670.41;6069913;23;20034;-94
2023/10/21 04:44:27;;;;;;;5.75;3.17;;;;;;;3.70;76.48;99643.47;6044171;23;20002;-94
2023/10/21 04:47:01;;;;;;;5.55;3.38;;;;;;;3.71;77.21;99635.09;6069866;23;20061;-92
2023/10/21 04:50:10;;;;;;;5.70;3.47;;;;;;;3.37;77.25;99572.41;6061601;23;20011;-94
2023/10/21 04:53:40;;;;;;;5.95;3.45;;;;;;;4.15;76.28;99680.00;6036057;23;20039;-95
2023/10/21 04:56:06;;;;;;;4.20;2.85;;;;;;;3.56;75.00;99607.16;6003285;23;20016;-94
2023/10/21 04:58:37;;;;;;;4.40;2.70;;;;;;;4.01;74.76;99698.59;5978735;24;20008;-93
2023/10/21 05:01:06;;;;;;;5.32;2.75;;;;;;;3.71;74.63;99645.13;5980555;24;20035;-95
2023/10/21 05:03:35;;;;;;;9.02;3.08;;;;;;;3.87;74.97;99665.75;6001719;24;20027;-94
2023/10/21 05:06:18;;;;;;;4.88;3.17;;;;;;;3.39;76.29;99580.28;5984748;24;20012;-95
2023/10/21 05:09:07;;;;;;;5.07;3.22;;;;;;;3.40;75.90;99574.59;5983379;24;20004;-93
2023/10/21 05:11:37;;;;;;;6.28;3.13;;;;;;;4.13;75.70;99682.97;6037419;23;20023;-93
2023/10/21 05:14:15;;;;;;;4.97;3.40;;;;;;;4.23;76.17;99701.97;6010171;23;20015;-96
2023/10/21 05:16:49;;;;;;;4.63;3.20;;;;;;;4.09;76.25;99670.22;6037530;23;20030;-93
2023/10/21 05:19:46;;;;;;;7.70;3.42;;;;;;;3.61;74.75;99596.34;6026891;23;20043;-94
2023/10/21 05:22:19;;;;;;;3.95;2.70;;;;;;;3.66;74.37;99626.94;6042469;23;20027;-94
2023/10/21 05:24:46;;;;;;;6.28;3.30;;;;;;;3.97;75.25;99682.06;6040635;23;20019;-94
2023/10/21 05:27:13;;;;;;;7.63;3.92;;;;;;;3.73;75.50;99651.06;6040033;23;20022;-94
2023/10/21 05:29:43;;;;;;;10.85;3.72;;;;;;;3.91;75.97;99682.31;6043923;23;20026;-94
2023/10/21 05:32:36;;;;;;;4.72;3.30;;;;;;;4.19;75.74;99736.03;6088401;23;19999;-94
2023/10/21 05:35:23;;;;;;;5.55;3.15;;;;;;;3.65;75.50;99665.06;6127793;23;20025;-95
2023/10/21 05:38:09;;;;;;;5.30;3.40;;;;;;;3.89;75.07;99708.78;6105122;23;20016;-95
2023/10/21 05:40:41;;;;;;;5.03;3.13;;;;;;;3.78;76.13;99688.16;6105925;23;20021;-95
2023/10/21 05:43:34;;;;;;;6.55;3.67;;;;;;;3.43;76.47;99636.22;6151056;23;20014;-94
2023/10/21 05:46:17;;;;;;;6.65;3.58;;;;;;;3.53;76.62;99639.00;6126856;23;20013;-94
2023/10/21 05:48:45;;;;;;;8.27;4.13;;;;;;;3.76;76.45;99672.19;6150515;23;19998;-93
2023/10/21 05:51:12;;;;;;;7.63;4.03;;;;;;;4.30;76.33;99761.28;6125747;23;20017;-95
2023/10/21 05:53:43;;;;;;;9.57;4.45;;;;;;;3.55;75.71;99636.06;6130464;23;20002;-94
2023/10/21 06:01:49;;;;;;;11.68;4.40;;;;;;;4.23;76.04;99710.09;6206583;23;20045;-93
2023/10/21 06:04:16;;;;;;;11.48;4.60;;;;;;;3.85;75.48;99656.28;6134797;23;20021;-94
2023/10/21 06:06:54;;;;;;;12.07;4.30;;;;;;;3.88;75.14;99666.59;6234368;23;20023;-94
2023/10/21 06:09:33;;;;;;;5.35;3.67;;;;;;;3.78;75.08;99656.50;6192686;23;20008;-95
2023/10/21 06:12:28;;;;;;;6.13;3.63;;;;;;;4.24;74.64;99732.56;6212596;23;20031;-94
2023/10/21 06:14:56;;;;;;;8.88;4.40;;;;;;;4.56;73.99;99781.19;6165286;23;20050;-90
2023/10/21 06:17:29;;;;;;;10.15;4.50;;;;;;;4.07;74.54;99691.31;6175314;23;20028;-91
2023/10/21 06:20:00;;;;;;;8.93;5.68;;;;;;;4.21;73.04;99730.38;6178872;23;20025;-92
2023/10/21 06:22:26;;;;;;;15.43;4.80;;;;;;;4.30;72.99;99749.63;6156071;23;20020;-92
2023/10/21 06:24:52;;;;;;;7.55;4.85;;;;;;;3.97;72.61;99700.16;6181675;23;20027;-88
2023/10/21 06:27:18;;;;;;;10.07;4.95;;;;;;;4.18;73.07;99733.59;6183075;23;20080;-89
2023/10/21 06:29:44;;;;;;;10.23;4.47;;;;;;;4.51;71.61;99786.59;6216149;23;20005;-90
2023/10/21 06:32:12;;;;;;;9.07;4.20;;;;;;;4.40;72.00;99771.34;6165323;23;20021;-91
2023/10/21 06:34:37;;;;;;;;;;;;;;;4.59;72.05;99807.75;6186879;23;20027;-87
2023/10/21 06:37:04;;;;;;;11.90;4.75;;;;;;;4.47;72.69;99780.91;6240163;23;19959;-90
2023/10/21 06:39:31;;;;;;;7.68;4.90;;;;;;;4.33;72.61;99752.63;6214286;23;20031;-92
2023/10/21 06:41:57;;;;;;;8.70;4.95;;;;;;;4.57;72.61;99776.59;6190589;23;20021;-89
2023/10/21 06:44:23;;;;;;;10.90;5.45;;;;;;;4.82;71.70;99820.09;6215213;23;20012;-90
2023/10/21 06:46:54;;;;;;;9.15;5.10;;;;;;;4.35;72.02;99736.97;6230377;23;20020;-87
2023/10/21 06:49:20;;;;;;;12.70;5.75;;;;;;;4.69;73.29;99807.00;6172366;23;20071;-88
2023/10/21 06:51:50;;;;;;;17.63;5.70;;;;;;;4.44;72.37;99742.72;6151032;23;20454;-88
2023/10/21 06:54:34;;;;;;;18.55;5.43;;;;;;;4.89;73.33;99809.81;6226150;23;20016;-90
2023/10/21 06:57:09;;;;;;;12.20;5.13;;;;;;;4.48;72.24;99724.84;6202315;23;20020;-92
2023/10/21 06:59:35;;;;;;;11.23;5.13;;;;;;;4.65;71.74;99763.38;6115414;23;20014;-90
2023/10/21 07:02:02;;;;;;;9.95;5.57;;;;;;;4.95;71.18;99800.63;6118210;23;20510;-91
2023/10/21 07:04:28;;;;;;;9.63;5.25;;;;;;;5.02;71.13;99821.25;6092939;23;20032;-91
2023/10/21 07:06:56;;;;;;;18.40;5.40;;;;;;;4.74;70.97;99777.25;6120527;23;20045;-93
2023/10/21 07:09:29;;;;;;;8.43;4.90;;;;;;;4.86;71.33;99783.25;6071173;23;20033;-91
2023/10/21 07:11:56;;;;;;;12.68;5.60;;;;;;;4.86;71.20;99802.22;6120717;23;20017;-90
2023/10/21 07:14:23;;;;;;;8.68;5.28;;;;;;;4.91;71.32;99804.97;6123754;23;20499;-91
2023/10/21 07:16:50;;;;;;;11.20;5.10;;;;;;;4.60;70.70;99759.81;6123612;23;20025;-93
2023/10/21 07:19:31;;;;;;;10.13;5.57;;;;;;;4.89;70.67;99800.88;6099515;23;20025;-90
2023/10/21 07:21:57;;;;;;;15.48;4.78;;;;;;;4.94;71.18;99809.84;6120229;23;20022;-90
2023/10/21 07:24:24;;;;;;;9.75;5.95;;;;;;;4.97;71.18;99808.53;6114741;23;20017;-90
2023/10/21 07:26:52;;;;;;;11.70;5.07;;;;;;;5.23;70.15;99836.56;6140400;23;20044;-90
2023/10/21 07:29:41;;;;;;;10.20;4.65;;;;;;;4.95;70.44;99806.06;6144217;23;20017;-92
2023/10/21 07:32:08;;;;;;;9.93;5.40;;;;;;;4.66;70.14;99811.03;6160639;23;20020;-88
2023/10/21 07:34:36;;;;;;;7.25;4.85;;;;;;;4.89;70.60;99844.22;6173675;23;20024;-90
2023/10/21 07:37:02;;;;;;;18.33;5.35;;;;;;;4.97;69.68;99854.59;6149579;23;20017;-91
2023/10/21 07:39:30;;;;;;;12.63;4.72;;;;;;;4.95;70.04;99829.63;6176199;23;20021;-90
2023/10/21 07:41:57;;;;;;;10.30;5.00;;;;;;;5.08;69.41;99837.28;6151459;23;20021;-92
2023/10/21 07:44:24;;;;;;;10.50;4.53;;;;;;;5.03;68.41;99821.00;6204150;23;20020;-91
2023/10/21 07:46:56;;;;;;;11.27;4.95;;;;;;;5.13;69.38;99855.44;6182855;23;20052;-91
2023/10/21 07:49:25;;;;;;;9.55;4.15;;;;;;;5.23;69.03;99881.78;6181823;23;20146;-90
2023/10/21 07:51:52;;;;;;;8.65;4.30;;;;;;;4.95;68.02;99841.28;6176510;23;20016;-92
2023/10/21 07:57:32;;;;;;;8.00;4.60;;;;;;;5.42;68.67;99877.53;6183705;23;20379;-92
2023/10/21 07:59:59;;;;;;;10.85;5.00;;;;;;;5.13;68.46;99848.16;6174064;23;20012;-92
2023/10/21 08:02:29;;;;;;;14.10;5.13;;;;;;;5.63;73.41;99890.13;6205642;23;20023;-91
2023/10/21 08:07:44;;;;;;;22.77;5.18;;;;;;;5.13;70.00;99913.22;6230650;23;19904;-92
2023/10/21 08:10:10;;;;;;;11.40;4.83;;;;;;;4.81;73.00;99878.06;6182092;23;20107;-90
2023/10/21 08:12:37;;;;;;;13.50;5.32;;;;;;;4.76;70.43;99894.25;6178108;23;20256;-90
2023/10/21 08:15:09;;;;;;;13.93;5.97;;;;;;;4.74;70.94;99907.25;6156395;23;20016;-91
2023/10/21 08:17:39;;;;;;;12.23;5.32;;;;;;;4.86;70.62;99921.41;6151308;23;20104;-94
2023/10/21 08:20:07;;;;;;;11.18;5.03;;;;;;;4.74;71.07;99906.44;6176086;23;20020;-90
2023/10/21 08:22:40;;;;;;;12.07;5.43;;;;;;;4.77;70.79;99914.03;6153490;23;20027;-91
2023/10/21 08:25:08;;;;;;;10.30;6.03;;;;;;;4.74;76.49;99857.69;6151519;23;20488;-91
2023/10/21 08:27:38;;;;;;;11.27;4.85;;;;;;;4.80;71.13;99853.91;6103007;23;20027;-93
2023/10/21 08:30:11;;;;;;;47.05;6.55;;;;;;;5.04;69.49;99876.03;6151328;23;20031;-90
2023/10/21 08:32:38;;;;;;;17.10;5.55;;;;;;;5.27;68.03;99926.28;6129025;23;20024;-94
2023/10/21 08:35:06;;;;;;;10.75;4.95;;;;;;;4.85;67.53;99849.34;6177372;23;20024;-92
2023/10/21 08:37:32;;;;;;;12.43;4.88;;;;;;;5.09;67.64;99854.34;6154206;23;20446;-93
2023/10/21 08:40:07;;;;;;;7.25;4.55;;;;;;;5.39;66.96;99892.44;6153468;23;20031;-91
2023/10/21 08:42:47;;;;;;;8.02;3.78;;;;;;;4.91;65.44;99802.25;6213884;23;20005;-89
2023/10/21 08:45:21;;;;;;;6.95;4.20;;;;;;;5.46;66.05;99884.06;6212178;23;20047;-90
2023/10/21 08:47:56;;;;;;;9.65;4.65;;;;;;;5.63;66.74;99919.94;6145389;23;20054;-90
2023/10/21 08:50:25;;;;;;;8.60;3.97;;;;;;;5.54;66.31;99899.03;6116367;23;20028;-91
2023/10/21 08:53:02;;;;;;;7.18;4.40;;;;;;;5.34;66.59;99849.06;6114967;23;20050;-92
2023/10/21 08:55:35;;;;;;;6.32;4.13;;;;;;;5.88;66.70;99897.50;6092310;23;20038;-91
2023/10/21 08:58:03;;;;;;;18.45;4.70;;;;;;;5.81;66.18;99871.72;6117339;23;20010;-91
2023/10/21 09:00:29;;;;;;;8.95;4.07;;;;;;;5.94;65.22;99878.56;6116022;23;20050;-92
2023/10/21 09:02:59;;;;;;;7.97;4.33;;;;;;;5.98;65.39;99912.22;6121431;23;20021;-92
2023/10/21 09:06:07;;;;;;;10.80;4.47;;;;;;;6.04;65.96;99925.53;6121673;23;20069;-90
2023/10/21 09:08:34;;;;;;;6.93;3.72;;;;;;;5.82;65.39;99901.28;6076313;23;20022;-91
2023/10/21 09:11:06;;;;;;;8.68;5.03;;;;;;;5.88;65.48;99904.81;6084456;23;20950;-91
2023/10/21 09:13:40;;;;;;;15.35;4.80;;;;;;;6.05;65.00;99935.28;6188241;23;20060;-91
2023/10/21 09:16:31;;;;;;;8.25;4.72;;;;;;;6.13;64.86;99916.88;6190338;23;20008;-91
2023/10/21 09:19:06;;;;;;;14.95;4.28;;;;;;;5.84;64.96;99879.31;6182031;23;20024;-90
2023/10/21 09:21:43;;;;;;;9.15;4.55;;;;;;;5.98;65.25;99883.16;6183753;23;20028;-91
2023/10/21 09:24:20;;;;;;;9.07;5.22;;;;;;;6.07;64.24;99899.75;6181772;23;20016;-93
2023/10/21 09:26:49;;;;;;;7.47;4.93;;;;;;;5.98;62.81;99883.16;6184358;23;20017;-93
2023/10/21 09:29:19;;;;;;;6.18;3.97;;;;;;;6.48;62.66;99930.47;6172824;23;20391;-92
2023/10/21 09:31:52;;;;;;;8.50;4.60;;;;;;;6.48;63.60;99911.47;6125339;23;20036;-93
2023/10/21 09:34:51;;;;;;;10.40;4.43;;;;;;;6.22;62.56;99888.09;6099984;23;20013;-92
2023/10/21 09:37:29;;;;;;;9.52;3.85;;;;;;;6.04;63.14;99920.09;6152095;23;20094;-93
2023/10/21 09:39:57;;;;;;;7.93;4.55;;;;;;;6.21;63.52;99936.16;6102227;23;20022;-93
2023/10/21 09:42:29;;;;;;;13.18;3.90;;;;;;;6.35;63.94;99963.59;6127043;23;20021;-93
2023/10/21 09:44:58;;;;;;;6.47;3.97;;;;;;;6.21;63.96;99952.44;6120862;23;20096;-92
2023/10/21 09:47:37;;;;;;;6.85;4.10;;;;;;;5.80;63.98;99914.31;6099990;23;20029;-93
2023/10/21 09:50:07;;;;;;;13.02;3.80;;;;;;;5.79;64.30;99928.94;6074335;23;20030;-93
2023/10/21 09:52:52;;;;;;;16.92;4.10;;;;;;;6.05;64.38;99961.63;6099239;23;20019;-93
2023/10/21 09:58:19;;;;;;;4.57;3.15;;;;;;;5.80;62.81;99930.59;6240693;23;20021;-92
2023/10/21 10:01:13;;;;;;;5.75;3.95;;;;;;;6.09;62.66;99971.69;6188308;23;20025;-91
2023/10/21 10:04:26;;;;;;;5.88;3.78;;;;;;;5.57;62.37;99884.94;6142300;23;20000;-92
2023/10/21 10:07:30;;;;;;;14.57;4.82;;;;;;;5.66;62.81;99896.88;6218061;23;20011;-92
2023/10/21 10:10:15;;;;;;;5.80;4.20;;;;;;;5.75;63.43;99899.91;6211928;23;20013;-91
2023/10/21 10:13:02;;;;;;;13.93;4.65;;;;;;;6.19;63.64;99967.34;6139143;23;20000;-91
2023/10/21 10:15:52;;;;;;;6.47;4.55;;;;;;;6.10;64.04;99938.03;6161989;23;20043;-92
2023/10/21 10:21:15;;;;;;;13.73;5.72;;;;;;;6.41;61.55;99980.72;6236645;23;20025;-92
2023/10/21 10:23:52;;;;;;;24.98;14.77;;;;;;;6.53;61.62;99984.81;6185532;23;20019;-91
2023/10/21 10:26:45;;;;;;;8.30;4.20;;;;;;;6.25;61.50;99933.69;6208883;23;20012;-90
2023/10/21 10:29:37;;;;;;;10.23;6.07;;;;;;;6.30;60.48;99928.28;6110228;23;20021;-92
2023/10/21 10:32:20;;;;;;;8.25;4.30;;;;;;;6.83;60.87;100002.22;6143547;23;20098;-91
2023/10/21 10:35:16;;;;;;;8.85;4.93;;;;;;;6.25;61.23;99910.09;6118680;23;20031;-91
2023/10/21 10:37:51;;;;;;;8.07;4.95;;;;;;;6.42;61.33;99961.41;6145888;23;20022;-92
2023/10/21 10:40:34;;;;;;;8.40;3.92;;;;;;;6.35;60.69;99952.72;6167105;23;20085;-92
2023/10/21 10:43:01;;;;;;;7.50;4.30;;;;;;;6.42;61.46;99980.44;6117492;23;20018;-92
2023/10/21 10:45:34;;;;;;;8.30;5.03;;;;;;;6.65;61.42;99994.59;6146538;23;20018;-91
2023/10/21 10:48:02;;;;;;;11.73;4.38;;;;;;;6.59;60.51;99991.88;6121730;23;20077;-92
2023/10/21 10:50:37;;;;;;;8.73;3.67;;;;;;;6.68;59.95;100005.72;6121747;23;20049;-92
2023/10/21 10:53:21;;;;;;;6.75;3.25;;;;;;;6.27;57.78;99956.78;6076211;23;20021;-92
2023/10/21 10:55:55;;;;;;;7.35;3.75;;;;;;;6.25;58.57;99961.66;6120412;23;20029;-92
2023/10/21 10:58:26;;;;;;;6.93;3.67;;;;;;;6.70;58.37;100010.91;6118344;23;20017;-92
2023/10/21 11:01:07;;;;;;;8.95;4.40;;;;;;;6.48;58.20;99967.69;6174987;23;20062;-93
2023/10/21 11:03:36;;;;;;;13.45;7.82;;;;;;;6.22;58.71;99917.94;6124775;23;20033;-94
2023/10/21 11:06:03;;;;;;;6.75;4.32;;;;;;;6.26;58.63;99935.34;6143069;23;20025;-93
2023/10/21 11:08:43;;;;;;;10.45;3.80;;;;;;;6.73;58.40;99997.59;6162654;23;20001;-92
2023/10/21 11:11:11;;;;;;;9.60;3.88;;;;;;;6.62;58.17;100004.09;6185211;23;20029;-94
2023/10/21 11:13:42;;;;;;;9.32;4.88;;;;;;;6.56;58.88;99978.03;6187017;23;20080;-94
2023/10/21 11:16:55;;;;;;;6.22;4.20;;;;;;;6.59;58.63;99989.16;6197480;23;20024;-96
2023/10/21 11:19:55;;;;;;;8.75;4.10;;;;;;;6.51;58.29;99989.69;6222486;23;20009;-94
2023/10/21 11:22:33;;;;;;;7.45;4.00;;;;;;;6.13;57.73;99939.41;6167199;23;20039;-94
2023/10/21 11:25:45;;;;;;;12.13;6.10;;;;;;;6.25;58.11;99939.13;6163625;23;20012;-94
2023/10/21 11:28:30;;;;;;;26.17;11.85;;;;;;;6.52;58.91;99972.31;6147976;23;20033;-95
2023/10/21 11:31:02;;;;;;;13.35;6.43;;;;;;;7.03;58.22;100053.06;6096356;23;20357;-94
2023/10/21 11:33:42;;;;;;;82.72;33.20;;;;;;;6.35;59.41;99948.09;6123135;23;20002;-94
2023/10/21 11:36:16;;;;;;;18.30;8.40;;;;;;;6.65;59.33;99986.44;6119303;23;20091;-93
2023/10/21 11:38:51;;;;;;;31.55;14.32;;;;;;;6.89;58.63;100016.63;6119914;23;20018;-95
2023/10/21 11:41:27;;;;;;;36.22;14.65;;;;;;;6.64;58.99;99954.94;6097311;23;20022;-93
2023/10/21 11:44:02;;;;;;;24.95;9.68;;;;;;;6.46;58.99;99961.72;6020709;23;20070;-94
2023/10/21 11:46:39;;;;;;;76.43;34.60;;;;;;;7.10;58.53;100053.59;6041689;23;20038;-93
2023/10/21 11:49:23;;;;;;;10.15;6.15;;;;;;;6.44;58.29;99961.16;6020707;23;20074;-94
2023/10/21 11:51:52;;;;;;;11.63;6.50;;;;;;;7.01;58.59;100034.28;5988942;23;20050;-94
2023/10/21 11:54:33;;;;;;;18.25;6.25;;;;;;;6.51;57.92;99957.09;6008443;23;20019;-94
2023/10/21 12:28:13;;;;;;;26.70;5.88;;;;;;;6.92;57.98;100116.63;6034909;23;20042;-91
2023/10/21 12:41:45;;;;;;;10.05;4.95;;;;;;;6.50;58.66;100095.91;6070423;23;20061;-91
2023/10/21 12:44:14;;;;;;;12.13;5.30;;;;;;;6.58;58.41;100104.34;6071271;23;20014;-90
2023/10/21 12:46:57;;;;;;;14.38;5.60;;;;;;;6.21;58.54;100063.75;6114781;23;20018;-92
2023/10/21 12:49:28;;;;;;;13.40;4.90;;;;;;;6.38;58.03;100101.56;6069570;23;20022;-93
2023/10/21 12:51:56;;;;;;;18.40;6.63;;;;;;;6.37;59.00;100085.53;6092801;23;20041;-93
2023/10/21 12:54:22;;;;;;;12.25;5.38;;;;;;;6.34;58.07;100092.31;6100321;23;20468;-92
2023/10/21 12:56:51;;;;;;;10.60;4.95;;;;;;;6.55;58.77;100142.88;6093769;23;20029;-92
2023/10/21 13:00:04;;;;;;;7.60;4.50;;;;;;;6.43;59.15;100119.78;6111357;23;20028;-91
2023/10/21 13:02:35;;;;;;;11.85;5.63;;;;;;;6.24;58.41;100070.53;6085646;23;20018;-94
2023/10/21 13:05:07;;;;;;;19.02;5.60;;;;;;;6.46;58.56;100094.81;6088095;23;20045;-92
2023/10/21 13:07:43;;;;;;;13.05;5.45;;;;;;;6.38;58.08;100060.00;6135725;23;20029;-91
2023/10/21 13:10:10;;;;;;;13.05;4.95;;;;;;;6.81;58.76;100138.34;6068129;23;20026;-91
2023/10/21 13:12:43;;;;;;;9.57;5.15;;;;;;;6.44;59.83;100070.63;6094342;23;20022;-91
2023/10/21 13:15:30;;;;;;;10.38;4.80;;;;;;;6.45;59.11;100049.69;6106114;23;20079;-91
2023/10/21 13:18:03;;;;;;;11.85;4.60;;;;;;;6.88;59.14;100137.28;6136401;23;20001;-92
2023/10/21 13:20:35;;;;;;;10.23;4.70;;;;;;;6.74;59.70;100143.25;6153588;23;20012;-91
2023/10/21 13:23:04;;;;;;;16.77;4.47;;;;;;;6.62;59.29;100096.47;6212326;23;20036;-91
2023/10/21 13:25:37;;;;;;;8.45;4.32;;;;;;;6.76;58.50;100110.38;6136515;23;20002;-92
2023/10/21 13:28:22;;;;;;;16.80;4.97;;;;;;;6.61;58.22;100069.56;6152576;23;20017;-91
2023/10/21 13:30:49;;;;;;;29.10;7.25;;;;;;;6.55;59.12;100058.69;6099488;23;20022;-91
2023/10/21 13:33:19;;;;;;;24.77;5.70;;;;;;;6.91;58.62;100117.72;6144891;23;20088;-91
2023/10/21 13:35:45;;;;;;;;;;;;;;;7.06;58.88;100134.09;6094708;23;20004;-92
2023/10/21 13:38:15;;;;;;;13.07;5.55;;;;;;;6.75;59.08;100087.00;6087579;23;19916;-94
2023/10/21 13:40:42;;;;;;;23.52;7.10;;;;;;;6.94;57.67;100096.25;6088499;23;20021;-93
2023/10/21 13:43:25;;;;;;;21.45;5.70;;;;;;;7.19;57.32;100140.91;6136722;23;20021;-91
2023/10/21 13:45:51;;;;;;;19.52;6.55;;;;;;;6.80;58.05;100095.97;6117335;23;20040;-92
2023/10/21 13:48:19;;;;;;;21.25;6.18;;;;;;;6.70;59.57;100074.22;6095321;23;20024;-91
2023/10/21 13:50:49;;;;;;;17.70;5.40;;;;;;;6.68;58.35;100116.31;6140320;23;20032;-90
2023/10/21 13:53:17;;;;;;;11.23;4.95;;;;;;;6.34;58.99;100078.72;6073119;23;20031;-91
2023/10/21 13:55:50;;;;;;;12.75;5.13;;;;;;;6.63;58.89;100140.78;6117216;23;20021;-91
2023/10/21 13:58:17;;;;;;;10.70;4.80;;;;;;;6.36;58.31;100120.03;6154637;23;20005;-92
2023/10/21 14:00:47;;;;;;;8.40;4.60;;;;;;;6.48;58.71;100136.09;6098741;23;20076;-92
2023/10/21 14:03:16;;;;;;;;;;;;;;;6.60;59.33;100150.25;6154421;23;20024;-91
2023/10/21 14:05:58;;;;;;;14.05;4.75;;;;;;;6.13;58.65;100091.41;6174471;23;19976;-92
2023/10/21 14:08:29;;;;;;;12.23;4.70;;;;;;;6.56;59.18;100149.16;6150601;23;19993;-92
2023/10/21 14:10:58;;;;;;;13.60;4.88;;;;;;;6.52;59.55;100150.75;6172757;23;20021;-91
2023/10/21 14:13:28;;;;;;;19.27;6.43;;;;;;;6.55;59.29;100158.38;6147595;23;20017;-91
2023/10/21 14:18:44;;;;;;;17.00;7.18;;;;;;;6.15;60.06;100151.66;6229227;23;20029;-92
2023/10/21 14:21:15;;;;;;;13.50;6.88;;;;;;;5.93;60.86;100129.28;6186829;23;20001;-92
2023/10/21 14:23:43;;;;;;;18.13;8.87;;;;;;;6.01;61.28;100147.78;6190523;23;20410;-91
2023/10/21 14:26:11;;;;;;;20.65;9.23;;;;;;;5.74;60.83;100112.59;6179636;23;20027;-91
2023/10/21 14:28:38;;;;;;;31.00;9.63;;;;;;;5.82;61.47;100144.66;6149887;23;20087;-90
2023/10/21 14:31:06;;;;;;;21.88;9.52;;;;;;;5.79;62.01;100173.13;6150996;23;20103;-91
2023/10/21 14:33:34;;;;;;;25.65;10.35;;;;;;;5.44;61.91;100110.50;6148247;23;20021;-91
2023/10/21 14:36:05;;;;;;;23.88;9.48;;;;;;;5.87;61.87;100188.94;6174375;23;20051;-92
2023/10/21 14:38:32;;;;;;;17.48;8.88;;;;;;;5.94;62.31;100185.22;6152497;23;20111;-91
2023/10/21 14:41:00;;;;;;;29.48;9.27;;;;;;;5.76;61.81;100146.53;6175099;23;20023;-90
2023/10/21 14:43:26;;;;;;;24.98;9.05;;;;;;;5.52;61.86;100120.84;6197955;23;20047;-91
2023/10/21 14:45:59;;;;;;;24.92;9.23;;;;;;;5.83;62.14;100184.28;6202273;23;20016;-92
2023/10/21 14:48:25;;;;;;;19.58;8.57;;;;;;;5.57;61.93;100154.25;6116968;23;20041;-91
2023/10/21 14:50:53;;;;;;;22.25;8.02;;;;;;;5.51;62.25;100149.84;6117326;23;20030;-91
2023/10/21 14:53:19;;;;;;;29.30;9.23;;;;;;;5.28;62.67;100129.31;6091854;23;20023;-91
2023/10/21 14:55:47;;;;;;;23.70;9.65;;;;;;;5.60;63.28;100212.59;6116960;23;20104;-91
2023/10/21 14:58:12;;;;;;;;;;;;;;;5.60;63.18;100215.31;6136810;23;20105;-92
2023/10/21 15:00:42;;;;;;;30.00;10.63;;;;;;;5.47;63.45;100202.16;6169012;23;19936;-93
2023/10/21 15:03:19;;;;;;;20.92;9.27;;;;;;;5.09;63.21;100147.03;6100622;23;20032;-92
2023/10/21 15:05:58;;;;;;;23.10;9.75;;;;;;;5.31;63.79;100187.66;6147584;23;20018;-92
2023/10/21 15:08:25;;;;;;;17.50;9.48;;;;;;;5.10;63.27;100159.50;6075503;23;20028;-93
2023/10/21 15:10:53;;;;;;;33.17;10.57;;;;;;;5.43;63.55;100231.69;6119867;23;20017;-93
2023/10/21 15:13:24;;;;;;;24.42;9.80;;;;;;;5.30;63.82;100218.56;6141427;23;20018;-93
2023/10/21 15:16:02;;;;;;;27.73;12.77;;;;;;;4.74;63.37;100139.38;6121068;23;20073;-92
2023/10/21 15:18:30;;;;;;;29.35;13.30;;;;;;;5.36;63.62;100239.19;6095641;23;20021;-92
2023/10/21 15:21:07;;;;;;;32.92;14.13;;;;;;;4.75;63.16;100162.66;6120052;23;20014;-93
2023/10/21 15:23:35;;;;;;;32.38;15.68;;;;;;;5.27;62.86;100252.41;6099347;23;20100;-91
2023/10/21 15:26:37;;;;;;;39.38;18.20;;;;;;;4.85;64.17;100190.69;6098713;23;20017;-92
2023/10/21 15:29:30;;;;;;;34.67;16.83;;;;;;;5.08;64.34;100210.44;5984116;23;20023;-92
2023/10/21 15:32:16;;;;;;;30.27;16.10;;;;;;;5.30;64.10;100251.91;6022156;23;20113;-93
2023/10/21 15:34:49;;;;;;;31.27;14.93;;;;;;;4.93;64.19;100192.13;6006415;23;20107;-94
2023/10/21 15:37:20;;;;;;;8.45;5.85;;;;;;;4.94;62.92;100196.47;6001660;23;20019;-93
2023/10/21 15:39:51;;;;;;;14.55;6.65;;;;;;;5.38;62.35;100248.72;5980085;23;20022;-93
2023/10/21 15:42:19;;;;;;;19.80;7.65;;;;;;;5.23;63.01;100224.19;5932889;23;20019;-93
2023/10/21 15:44:55;;;;;;;24.42;9.57;;;;;;;5.29;63.98;100225.84;6028024;23;20141;-94
2023/10/21 15:47:22;;;;;;;22.27;9.05;;;;;;;5.39;63.26;100227.84;6035304;23;20019;-90
2023/10/21 15:49:48;;;;;;;19.10;7.68;;;;;;;5.54;62.59;100257.00;6013153;23;20412;-92
2023/10/21 15:52:16;;;;;;;16.55;6.90;;;;;;;5.10;62.27;100192.03;6054617;23;20025;-87
2023/10/21 15:54:44;;;;;;;21.77;8.07;;;;;;;5.25;63.13;100224.72;6077909;23;20058;-88
2023/10/21 15:57:10;;;;;;;20.70;8.85;;;;;;;5.33;63.80;100245.97;6076527;23;20025;-87
2023/10/21 15:59:36;;;;;;;28.67;11.50;;;;;;;5.33;63.84;100256.81;6076074;23;20029;-87
2023/10/21 16:02:05;;;;;;;16.02;8.40;;;;;;;5.30;64.09;100234.81;6083734;23;20018;-94